Fischer, Texas
Current Conditions -  °F | °C
As of 4:51 AM on Thursday 18 Dec 2014 (Local Time) from KBAZ Reporting Station
Haze Haze  
Wind Chill: 53°   Ceiling: 200
Heat Index: 53°   Visibility: 1.5mi
Dew Point: 52°   Wind: 9mph
Humidity: 96%   Direction: 30°NNE
Pressure: 30.05"   Gusts: NA
Location:  29.98°N, 98.27°W
Report Text: KBAZ 181051Z AUTO 03008KT 1 1/2SM BR OVC002 12/11 A3005 RMK AO2 SLP174 T01170111
Loading
Personal Weather Stations






























Interactive Weather Map New forecast layout! Learn more

10-Day Weather Forecast

Advertisements
Track Severe Weather on mobile